createdAt,value
2022-11-27T00:00:45.317Z,99513.78
2022-11-27T00:03:12.141Z,99506.03
2022-11-27T00:05:38.637Z,99505.88
2022-11-27T00:08:05.201Z,99506.72
2022-11-27T00:10:31.550Z,99502.69
2022-11-27T00:12:57.946Z,99503.66
2022-11-27T00:15:24.358Z,99496.84
2022-11-27T00:17:50.707Z,99492.56
2022-11-27T00:20:17.198Z,99480.50
2022-11-27T00:22:43.633Z,99474.66
2022-11-27T00:25:09.949Z,99472.31
2022-11-27T00:27:36.291Z,99476.25
2022-11-27T00:30:02.799Z,99468.63
2022-11-27T00:32:29.141Z,99469.72
2022-11-27T00:34:55.467Z,99470.81
2022-11-27T00:37:21.888Z,99461.13
2022-11-27T00:39:48.339Z,99455.31
2022-11-27T00:42:14.702Z,99450.03
2022-11-27T00:44:41.425Z,99450.19
2022-11-27T00:47:08.002Z,99449.09
2022-11-27T00:49:34.404Z,99450.88
2022-11-27T00:52:00.753Z,99445.03
2022-11-27T00:54:27.061Z,99445.69
2022-11-27T00:56:53.878Z,99452.84
2022-11-27T00:59:20.266Z,99464.22
2022-11-27T01:01:47.274Z,99455.88
2022-11-27T01:04:15.610Z,99463.19
2022-11-27T01:06:42.804Z,99464.16
2022-11-27T01:09:11.824Z,99459.16
2022-11-27T01:11:38.465Z,99452.50
2022-11-27T01:14:08.130Z,99449.16
2022-11-27T01:16:36.398Z,99446.41
2022-11-27T01:19:04.756Z,99443.91
2022-11-27T01:21:34.630Z,99437.59
2022-11-27T01:24:02.627Z,99436.50
2022-11-27T01:26:29.250Z,99429.84
2022-11-27T01:28:57.768Z,99436.31
2022-11-27T01:31:28.368Z,99436.84
2022-11-27T01:33:57.661Z,99439.34
2022-11-27T01:36:24.616Z,99438.31
2022-11-27T01:38:51.216Z,99439.50
2022-11-27T01:41:20.816Z,99439.38
2022-11-27T01:43:52.948Z,99425.16
2022-11-27T01:46:39.434Z,99420.50
2022-11-27T01:49:12.015Z,99428.50
2022-11-27T01:51:44.347Z,99427.66
2022-11-27T01:54:11.243Z,99419.78
2022-11-27T01:56:40.127Z,99417.03
2022-11-27T01:59:07.405Z,99413.34
2022-11-27T02:01:33.817Z,99402.38
2022-11-27T02:04:02.315Z,99396.88
2022-11-27T02:06:28.902Z,99399.75
2022-11-27T02:08:56.241Z,99399.06
2022-11-27T02:11:46.369Z,99398.72
2022-11-27T02:14:33.694Z,99394.44
2022-11-27T02:17:18.718Z,99387.53
2022-11-27T02:20:12.846Z,99374.84
2022-11-27T02:22:47.335Z,99379.56
2022-11-27T02:25:28.297Z,99373.63
2022-11-27T02:28:19.133Z,99375.16
2022-11-27T02:30:56.635Z,99371.81
2022-11-27T02:33:23.865Z,99375.78
2022-11-27T02:35:57.532Z,99377.59
2022-11-27T02:38:35.501Z,99377.34
2022-11-27T02:41:09.749Z,99377.91
2022-11-27T02:43:43.069Z,99379.44
2022-11-27T02:46:12.885Z,99376.91
2022-11-27T02:48:49.945Z,99381.91
2022-11-27T02:51:21.646Z,99374.72
2022-11-27T02:54:02.058Z,99367.94
2022-11-27T02:56:31.047Z,99357.41
2022-11-27T02:59:01.238Z,99364.34
2022-11-27T03:01:31.237Z,99358.00
2022-11-27T03:04:00.000Z,99354.41
2022-11-27T03:06:34.457Z,99355.09
2022-11-27T03:09:08.411Z,99353.31
2022-11-27T03:11:34.917Z,99340.88
2022-11-27T03:14:06.398Z,99333.44
2022-11-27T03:16:40.265Z,99324.53
2022-11-27T03:19:17.299Z,99325.38
2022-11-27T03:21:48.344Z,99327.03
2022-11-27T03:24:15.265Z,99325.25
2022-11-27T03:26:42.048Z,99316.09
2022-11-27T03:29:14.175Z,99320.63
2022-11-27T03:31:41.231Z,99324.78
2022-11-27T03:34:08.425Z,99321.06
2022-11-27T03:36:34.822Z,99321.47
2022-11-27T03:39:01.431Z,99314.41
2022-11-27T03:41:45.746Z,99313.59
2022-11-27T03:44:35.163Z,99314.41
2022-11-27T03:47:32.310Z,99314.41
2022-11-27T03:50:23.676Z,99308.59
2022-11-27T03:53:22.178Z,99305.50
2022-11-27T03:55:54.652Z,99310.88
2022-11-27T03:58:31.442Z,99321.16
2022-11-27T04:01:00.326Z,99313.13
2022-11-27T04:03:29.620Z,99311.00
2022-11-27T04:05:56.902Z,99316.78
2022-11-27T04:08:23.541Z,99326.19
2022-11-27T04:10:49.936Z,99329.97
2022-11-27T04:13:16.667Z,99330.94
2022-11-27T04:15:43.112Z,99323.16
2022-11-27T04:18:09.537Z,99327.09
2022-11-27T04:20:35.913Z,99319.59
2022-11-27T04:23:02.570Z,99325.44
2022-11-27T04:25:29.064Z,99325.06
2022-11-27T04:27:55.596Z,99327.09
2022-11-27T04:30:22.224Z,99323.44
2022-11-27T04:32:48.622Z,99325.47
2022-11-27T04:35:15.133Z,99324.66
2022-11-27T04:37:41.557Z,99323.81
2022-11-27T04:40:08.562Z,99320.94
2022-11-27T04:42:35.055Z,99316.00
2022-11-27T04:45:01.460Z,99316.25
2022-11-27T04:47:27.833Z,99309.91
2022-11-27T04:49:54.249Z,99316.13
2022-11-27T04:52:20.582Z,99324.63
2022-11-27T04:54:46.923Z,99325.66
2022-11-27T04:57:13.374Z,99330.78
2022-11-27T04:59:39.791Z,99333.31
2022-11-27T05:02:06.179Z,99331.84
2022-11-27T05:04:32.578Z,99331.53
2022-11-27T05:06:59.112Z,99330.34
2022-11-27T05:09:25.529Z,99320.41
2022-11-27T05:11:51.953Z,99318.41
2022-11-27T05:14:18.480Z,99318.13
2022-11-27T05:16:49.955Z,99317.75
2022-11-27T05:19:18.080Z,99311.66
2022-11-27T05:21:45.755Z,99310.56
2022-11-27T05:24:13.506Z,99317.22
2022-11-27T05:26:40.884Z,99325.41
2022-11-27T05:29:08.832Z,99318.84
2022-11-27T05:31:35.760Z,99323.69
2022-11-27T05:34:02.848Z,99323.56
2022-11-27T05:36:29.886Z,99322.59
2022-11-27T05:38:56.573Z,99316.25
2022-11-27T05:41:23.395Z,99315.56
2022-11-27T05:43:49.877Z,99317.09
2022-11-27T05:46:18.638Z,99322.47
2022-11-27T05:48:44.986Z,99326.75
2022-11-27T05:51:11.335Z,99334.66
2022-11-27T05:53:37.778Z,99316.81
2022-11-27T05:56:10.804Z,99325.13
2022-11-27T05:58:38.977Z,99315.72
2022-11-27T06:01:06.689Z,99319.19
2022-11-27T06:03:33.421Z,99305.34
2022-11-27T06:06:06.175Z,99310.00
2022-11-27T06:08:32.627Z,99310.94
2022-11-27T06:10:59.059Z,99307.63
2022-11-27T06:13:25.396Z,99311.31
2022-11-27T06:15:51.765Z,99303.97
2022-11-27T06:18:18.200Z,99308.00
2022-11-27T06:20:46.838Z,99309.66
2022-11-27T06:23:16.611Z,99309.41
2022-11-27T06:25:43.010Z,99306.66
2022-11-27T06:28:09.563Z,99305.00
2022-11-27T06:30:37.602Z,99297.03
2022-11-27T06:33:04.125Z,99307.25
2022-11-27T06:35:30.494Z,99302.25
2022-11-27T06:37:56.863Z,99300.38
2022-11-27T06:40:23.397Z,99302.16
2022-11-27T06:42:49.780Z,99303.59
2022-11-27T06:45:16.217Z,99301.81
2022-11-27T06:47:42.575Z,99305.63
2022-11-27T06:50:09.288Z,99303.81
2022-11-27T06:52:40.119Z,99298.56
2022-11-27T06:55:07.509Z,99296.34
2022-11-27T06:57:33.858Z,99288.91
2022-11-27T07:00:00.236Z,99284.47
2022-11-27T07:02:26.813Z,99284.69
2022-11-27T07:04:53.193Z,99279.88
2022-11-27T07:07:19.595Z,99277.13
2022-11-27T07:09:46.084Z,99273.41
2022-11-27T07:12:12.470Z,99267.19
2022-11-27T07:14:39.224Z,99268.00
2022-11-27T07:17:05.825Z,99264.41
2022-11-27T07:19:32.248Z,99274.22
2022-11-27T07:21:58.594Z,99270.38
2022-11-27T07:24:25.060Z,99267.38
2022-11-27T07:26:51.422Z,99268.13
2022-11-27T07:29:17.770Z,99272.13
2022-11-27T07:31:44.199Z,99264.59
2022-11-27T07:34:15.997Z,99261.72
2022-11-27T07:36:46.284Z,99248.59
2022-11-27T07:39:12.652Z,99254.31
2022-11-27T07:41:38.994Z,99256.94
2022-11-27T07:44:05.428Z,99250.00
2022-11-27T07:46:31.946Z,99251.66
2022-11-27T07:49:00.510Z,99248.91
2022-11-27T07:51:27.679Z,99249.31
2022-11-27T07:53:54.053Z,99247.41
2022-11-27T07:56:21.465Z,99251.19
2022-11-27T07:58:48.892Z,99251.19
2022-11-27T08:01:18.337Z,99246.63
2022-11-27T08:03:45.127Z,99252.44
2022-11-27T08:06:23.471Z,99258.56
2022-11-27T08:08:50.618Z,99248.44
2022-11-27T08:11:21.831Z,99255.25
2022-11-27T08:13:48.838Z,99254.53
2022-11-27T08:16:15.389Z,99257.88
2022-11-27T08:18:42.115Z,99259.69
2022-11-27T08:21:08.490Z,99257.59
2022-11-27T08:23:34.833Z,99252.47
2022-11-27T08:26:05.268Z,99256.47
2022-11-27T08:28:31.873Z,99260.09
2022-11-27T08:30:59.762Z,99259.81
2022-11-27T08:33:26.279Z,99265.50
2022-11-27T08:35:53.036Z,99265.50
2022-11-27T08:38:20.935Z,99265.06
2022-11-27T08:41:06.838Z,99262.56
2022-11-27T08:43:33.849Z,99252.31
2022-11-27T08:46:04.707Z,99257.84
2022-11-27T08:48:31.339Z,99259.81
2022-11-27T08:50:58.772Z,99261.06
2022-11-27T08:53:25.113Z,99251.06
2022-11-27T08:55:51.572Z,99244.00
2022-11-27T08:58:17.906Z,99243.13
2022-11-27T09:00:44.357Z,99231.75
2022-11-27T09:03:11.597Z,99234.41
2022-11-27T09:05:42.327Z,99239.13
2022-11-27T09:08:08.689Z,99242.00
2022-11-27T09:10:37.042Z,99240.06
2022-11-27T09:13:03.422Z,99242.25
2022-11-27T09:15:29.786Z,99245.19
2022-11-27T09:17:56.237Z,99241.19
2022-11-27T09:20:22.669Z,99247.09
2022-11-27T09:22:49.022Z,99249.16
2022-11-27T09:25:15.437Z,99249.53
2022-11-27T09:27:41.851Z,99243.38
2022-11-27T09:30:08.804Z,99244.31
2022-11-27T09:32:35.461Z,99234.16
2022-11-27T09:35:01.972Z,99236.53
2022-11-27T09:37:28.491Z,99233.88
2022-11-27T09:39:55.690Z,99221.59
2022-11-27T09:42:47.147Z,99230.59
2022-11-27T09:45:17.334Z,99213.63
2022-11-27T09:47:54.103Z,99218.63
2022-11-27T09:50:30.894Z,99214.13
2022-11-27T09:53:06.729Z,99206.66
2022-11-27T09:55:43.542Z,99206.97
2022-11-27T09:58:37.704Z,99188.16
2022-11-27T10:01:15.921Z,99188.97
2022-11-27T10:03:43.737Z,99191.63
2022-11-27T10:06:33.411Z,99196.97
2022-11-27T10:09:21.352Z,99204.38
2022-11-27T10:12:11.850Z,99195.09
2022-11-27T10:14:47.194Z,99191.63
2022-11-27T10:17:26.839Z,99192.16
2022-11-27T10:20:10.579Z,99186.03
2022-11-27T10:23:10.167Z,99191.31
2022-11-27T10:25:50.544Z,99179.94
2022-11-27T10:28:36.413Z,99175.56
2022-11-27T10:31:09.548Z,99174.50
2022-11-27T10:33:50.335Z,99171.09
2022-11-27T10:36:39.084Z,99171.72
2022-11-27T10:39:15.752Z,99172.25
2022-11-27T10:41:52.002Z,99165.81
2022-11-27T10:44:28.057Z,99159.75
2022-11-27T10:47:01.398Z,99155.38
2022-11-27T10:49:27.778Z,99155.28
2022-11-27T10:51:54.139Z,99144.31
2022-11-27T10:54:28.985Z,99139.84
2022-11-27T10:57:14.308Z,99127.63
2022-11-27T10:59:55.020Z,99138.88
2022-11-27T11:02:31.441Z,99128.72
2022-11-27T11:05:24.057Z,99128.84
2022-11-27T11:08:14.880Z,99127.22
2022-11-27T11:10:49.544Z,99110.50
2022-11-27T11:13:19.348Z,99105.38
2022-11-27T11:15:57.874Z,99104.13
2022-11-27T11:18:41.346Z,99090.41
2022-11-27T11:21:17.371Z,99088.91
2022-11-27T11:23:46.856Z,99088.13
2022-11-27T11:26:27.980Z,99084.22
2022-11-27T11:28:58.116Z,99080.34
2022-11-27T11:31:38.012Z,99077.63
2022-11-27T11:34:15.180Z,99078.00
2022-11-27T11:36:52.422Z,99057.91
2022-11-27T11:39:27.892Z,99058.50
2022-11-27T11:41:54.220Z,99050.31
2022-11-27T11:44:25.753Z,99041.75
2022-11-27T11:46:54.847Z,99049.59
2022-11-27T11:49:29.143Z,99040.34
2022-11-27T11:52:33.302Z,99039.19
2022-11-27T11:55:17.704Z,99045.16
2022-11-27T11:58:32.294Z,99033.34
2022-11-27T12:01:34.096Z,99029.03
2022-11-27T12:04:06.433Z,99023.56
2022-11-27T12:06:44.558Z,99027.38
2022-11-27T12:09:29.396Z,99023.41
2022-11-27T12:12:10.822Z,99024.25
2022-11-27T12:14:44.907Z,99023.25
2022-11-27T12:17:35.615Z,99008.88
2022-11-27T12:20:21.797Z,99008.03
2022-11-27T12:23:16.011Z,98998.22
2022-11-27T12:25:50.946Z,98989.97
2022-11-27T12:28:58.767Z,98992.44
2022-11-27T12:31:41.655Z,98981.56
2022-11-27T12:34:32.667Z,98980.25
2022-11-27T12:37:13.938Z,98975.19
2022-11-27T12:40:06.914Z,98977.22
2022-11-27T12:42:48.401Z,98974.91
2022-11-27T12:45:19.673Z,98971.78
2022-11-27T12:47:56.359Z,98979.06
2022-11-27T12:50:34.724Z,98967.97
2022-11-27T12:53:11.532Z,98964.50
2022-11-27T12:55:43.212Z,98964.00
2022-11-27T12:58:27.640Z,98965.19
2022-11-27T13:01:03.007Z,98962.03
2022-11-27T13:03:37.721Z,98951.13
2022-11-27T13:06:11.378Z,98948.63
2022-11-27T13:08:53.382Z,98951.78
2022-11-27T13:11:26.123Z,98952.44
2022-11-27T13:14:03.236Z,98959.88
2022-11-27T13:16:45.187Z,98950.97
2022-11-27T13:19:33.268Z,98958.25
2022-11-27T13:22:03.390Z,98951.13
2022-11-27T13:24:30.345Z,98958.75
2022-11-27T13:27:02.310Z,98952.78
2022-11-27T13:29:47.918Z,98954.44
2022-11-27T13:32:22.608Z,98951.63
2022-11-27T13:34:52.152Z,98940.22
2022-11-27T13:37:31.448Z,98942.38
2022-11-27T13:40:18.366Z,98943.22
2022-11-27T13:42:49.014Z,98933.78
2022-11-27T13:45:28.196Z,98927.84
2022-11-27T13:47:56.876Z,98921.06
2022-11-27T13:50:29.689Z,98914.09
2022-11-27T13:53:03.246Z,98909.31
2022-11-27T13:55:32.538Z,98903.38
2022-11-27T13:58:01.242Z,98902.06
2022-11-27T14:00:37.958Z,98898.91
2022-11-27T14:03:06.294Z,98901.88
2022-11-27T14:05:39.845Z,98905.00
2022-11-27T14:08:18.463Z,98903.03
2022-11-27T14:10:56.313Z,98897.25
2022-11-27T14:13:34.992Z,98902.03
2022-11-27T14:16:04.783Z,98897.56
2022-11-27T14:18:31.570Z,98895.44
2022-11-27T14:21:01.798Z,98890.81
2022-11-27T14:23:37.909Z,98888.16
2022-11-27T14:26:19.019Z,98894.94
2022-11-27T14:28:49.790Z,98897.91
2022-11-27T14:31:35.681Z,98890.31
2022-11-27T14:34:20.835Z,98890.78
2022-11-27T14:36:54.342Z,98886.16
2022-11-27T14:39:36.774Z,98887.50
2022-11-27T14:42:19.013Z,98876.09
2022-11-27T14:44:45.452Z,98878.72
2022-11-27T14:47:22.598Z,98880.88
2022-11-27T14:49:56.032Z,98861.22
2022-11-27T14:52:23.577Z,98862.38
2022-11-27T14:54:51.006Z,98855.28
2022-11-27T14:57:24.274Z,98862.53
2022-11-27T15:00:11.248Z,98860.06
2022-11-27T15:02:37.775Z,98862.72
2022-11-27T15:05:06.056Z,98853.63
2022-11-27T15:07:44.051Z,98845.00
2022-11-27T15:10:41.218Z,98839.88
2022-11-27T15:13:21.297Z,98836.91
2022-11-27T15:15:56.560Z,98822.34
2022-11-27T15:18:24.185Z,98821.06
2022-11-27T15:20:51.802Z,98820.41
2022-11-27T15:23:24.364Z,98823.34
2022-11-27T15:25:59.466Z,98813.44
2022-11-27T15:28:35.650Z,98820.03
2022-11-27T15:31:21.464Z,98815.59
2022-11-27T15:33:59.777Z,98812.75
2022-11-27T15:36:26.748Z,98806.13
2022-11-27T15:39:05.055Z,98804.31
2022-11-27T15:41:31.541Z,98803.66
2022-11-27T15:43:57.894Z,98795.22
2022-11-27T15:46:30.160Z,98799.69
2022-11-27T15:48:57.182Z,98796.69
2022-11-27T15:51:23.642Z,98800.84
2022-11-27T15:53:50.096Z,98809.88
2022-11-27T15:56:16.822Z,98805.91
2022-11-27T15:58:43.576Z,98804.59
2022-11-27T16:01:11.112Z,98801.63
2022-11-27T16:03:39.764Z,98789.91
2022-11-27T16:06:08.307Z,98791.88
2022-11-27T16:08:34.839Z,98783.47
2022-11-27T16:11:03.134Z,98771.91
2022-11-27T16:13:29.691Z,98767.47
2022-11-27T16:16:04.243Z,98752.44
2022-11-27T16:18:32.249Z,98747.31
2022-11-27T16:21:09.819Z,98741.22
2022-11-27T16:23:38.444Z,98749.81
2022-11-27T16:26:05.469Z,98734.13
2022-11-27T16:28:32.459Z,98726.22
2022-11-27T16:31:02.204Z,98717.78
2022-11-27T16:33:30.372Z,98716.97
2022-11-27T16:36:03.934Z,98713.34
2022-11-27T16:38:30.266Z,98704.88
2022-11-27T16:41:00.992Z,98695.81
2022-11-27T16:43:29.475Z,98693.16
2022-11-27T16:46:10.728Z,98683.59
2022-11-27T16:48:39.172Z,98670.03
2022-11-27T16:51:07.709Z,98674.81
2022-11-27T16:53:38.580Z,98664.75
2022-11-27T16:56:06.150Z,98655.66
2022-11-27T16:58:34.442Z,98664.06
2022-11-27T17:01:01.056Z,98660.75
2022-11-27T17:03:27.465Z,98662.59
2022-11-27T17:05:53.886Z,98653.19
2022-11-27T17:08:20.196Z,98654.19
2022-11-27T17:10:46.589Z,98666.38
2022-11-27T17:13:12.932Z,98664.19
2022-11-27T17:15:40.802Z,98651.00
2022-11-27T17:18:07.344Z,98651.84
2022-11-27T17:20:33.813Z,98659.63
2022-11-27T17:23:00.177Z,98656.81
2022-11-27T17:25:26.840Z,98658.47
2022-11-27T17:27:53.234Z,98665.06
2022-11-27T17:30:20.051Z,98669.19
2022-11-27T17:32:46.391Z,98666.06
2022-11-27T17:35:13.008Z,98666.22
2022-11-27T17:37:39.345Z,98666.56
2022-11-27T17:40:06.531Z,98674.00
2022-11-27T17:42:32.910Z,98668.38
2022-11-27T17:44:59.350Z,98673.66
2022-11-27T17:47:25.686Z,98667.88
2022-11-27T17:49:52.015Z,98664.25
2022-11-27T17:52:18.405Z,98670.53
2022-11-27T17:54:44.876Z,98664.25
2022-11-27T17:57:11.210Z,98662.16
2022-11-27T17:59:37.655Z,98653.75
2022-11-27T18:02:04.154Z,98658.69
2022-11-27T18:04:30.987Z,98657.03
2022-11-27T18:06:57.690Z,98656.72
2022-11-27T18:09:24.179Z,98654.91
2022-11-27T18:11:50.524Z,98659.53
2022-11-27T18:14:16.941Z,98651.94
2022-11-27T18:16:43.432Z,98659.53
2022-11-27T18:19:11.613Z,98652.25
2022-11-27T18:21:38.431Z,98643.03
2022-11-27T18:24:23.469Z,98631.81
2022-11-27T18:27:07.710Z,98629.00
2022-11-27T18:29:37.582Z,98615.28
2022-11-27T18:32:04.320Z,98612.00
2022-11-27T18:34:30.908Z,98605.72
2022-11-27T18:36:59.439Z,98599.63
2022-11-27T18:39:26.505Z,98592.69
2022-11-27T18:41:52.873Z,98583.97
2022-11-27T18:44:19.650Z,98579.97
2022-11-27T18:46:46.212Z,98578.16
2022-11-27T18:49:12.929Z,98577.66
2022-11-27T18:51:39.325Z,98573.53
2022-11-27T18:54:05.875Z,98570.91
2022-11-27T18:56:32.376Z,98561.19
2022-11-27T18:59:04.008Z,98557.41
2022-11-27T19:01:36.789Z,98557.41
2022-11-27T19:04:06.839Z,98546.03
2022-11-27T19:06:35.620Z,98541.25
2022-11-27T19:09:02.043Z,98533.16
2022-11-27T19:11:30.627Z,98530.84
2022-11-27T19:13:57.357Z,98539.91
2022-11-27T19:16:30.992Z,98542.06
2022-11-27T19:18:59.279Z,98529.88
2022-11-27T19:21:28.597Z,98523.28
2022-11-27T19:23:56.367Z,98525.91
2022-11-27T19:26:24.049Z,98524.59
2022-11-27T19:28:51.859Z,98533.81
2022-11-27T19:31:18.956Z,98535.31
2022-11-27T19:33:50.338Z,98534.84
2022-11-27T19:36:16.869Z,98536.97
2022-11-27T19:38:43.367Z,98535.50
2022-11-27T19:41:15.276Z,98532.53
2022-11-27T19:43:41.766Z,98528.09
2022-11-27T19:46:15.321Z,98516.38
2022-11-27T19:48:41.885Z,98510.28
2022-11-27T19:51:09.829Z,98512.25
2022-11-27T19:53:36.955Z,98510.44
2022-11-27T19:56:04.033Z,98507.97
2022-11-27T19:58:30.471Z,98498.56
2022-11-27T20:01:15.436Z,98498.25
2022-11-27T20:03:43.084Z,98510.09
2022-11-27T20:06:18.417Z,98507.31
2022-11-27T20:08:45.939Z,98505.16
2022-11-27T20:11:19.536Z,98495.59
2022-11-27T20:13:46.255Z,98493.28
2022-11-27T20:16:15.192Z,98486.53
2022-11-27T20:18:42.092Z,98484.56
2022-11-27T20:21:17.044Z,98479.94
2022-11-27T20:23:44.842Z,98489.34
2022-11-27T20:26:12.387Z,98483.38
2022-11-27T20:28:41.253Z,98483.72
2022-11-27T20:31:13.468Z,98480.75
2022-11-27T20:33:39.865Z,98478.47
2022-11-27T20:36:15.340Z,98475.31
2022-11-27T20:38:41.914Z,98471.84
2022-11-27T20:41:10.264Z,98472.19
2022-11-27T20:43:37.473Z,98469.19
2022-11-27T20:46:04.917Z,98458.16
2022-11-27T20:48:31.745Z,98468.91
2022-11-27T20:51:06.153Z,98468.22
2022-11-27T20:53:32.549Z,98464.44
2022-11-27T20:56:03.735Z,98457.03
2022-11-27T20:58:30.251Z,98458.34
2022-11-27T21:00:59.720Z,98446.50
2022-11-27T21:03:29.899Z,98433.63
2022-11-27T21:05:56.310Z,98443.66
2022-11-27T21:08:23.048Z,98433.13
2022-11-27T21:10:50.359Z,98428.34
2022-11-27T21:13:16.769Z,98422.25
2022-11-27T21:15:47.421Z,98424.56
2022-11-27T21:18:14.212Z,98425.22
2022-11-27T21:20:41.911Z,98424.25
2022-11-27T21:23:08.486Z,98423.75
2022-11-27T21:25:34.940Z,98408.94
2022-11-27T21:28:01.355Z,98420.44
2022-11-27T21:30:28.313Z,98418.97
2022-11-27T21:32:54.670Z,98421.41
2022-11-27T21:35:21.023Z,98425.22
2022-11-27T21:37:47.348Z,98417.00
2022-11-27T21:40:13.768Z,98415.50
2022-11-27T21:42:44.379Z,98410.38
2022-11-27T21:45:11.308Z,98404.31
2022-11-27T21:47:37.684Z,98405.13
2022-11-27T21:50:05.009Z,98401.81
2022-11-27T21:52:31.418Z,98403.63
2022-11-27T21:54:57.888Z,98395.53
2022-11-27T21:57:24.330Z,98394.56
2022-11-27T21:59:51.849Z,98397.03
2022-11-27T22:02:18.232Z,98388.97
2022-11-27T22:04:44.929Z,98390.13
2022-11-27T22:07:11.787Z,98378.25
2022-11-27T22:09:38.185Z,98380.41
2022-11-27T22:12:04.722Z,98378.44
2022-11-27T22:14:31.049Z,98377.78
2022-11-27T22:16:57.473Z,98374.31
2022-11-27T22:19:23.893Z,98363.75
2022-11-27T22:21:50.311Z,98357.66
2022-11-27T22:24:19.732Z,98355.69
2022-11-27T22:26:46.992Z,98352.56
2022-11-27T22:29:13.329Z,98357.00
2022-11-27T22:31:39.771Z,98350.25
2022-11-27T22:34:06.182Z,98359.66
2022-11-27T22:36:34.535Z,98358.34
2022-11-27T22:39:04.265Z,98360.31
2022-11-27T22:41:32.444Z,98352.06
2022-11-27T22:44:00.386Z,98348.59
2022-11-27T22:46:32.529Z,98349.13
2022-11-27T22:49:01.074Z,98352.06
2022-11-27T22:51:29.998Z,98350.59
2022-11-27T22:53:56.349Z,98346.44
2022-11-27T22:56:22.963Z,98343.63
2022-11-27T22:58:52.859Z,98345.75
2022-11-27T23:01:28.675Z,98343.44
2022-11-27T23:03:55.186Z,98337.00
2022-11-27T23:06:23.765Z,98332.06
2022-11-27T23:08:51.018Z,98326.97
2022-11-27T23:11:26.164Z,98320.78
2022-11-27T23:13:54.679Z,98325.88
2022-11-27T23:16:21.572Z,98316.97
2022-11-27T23:18:48.285Z,98319.94
2022-11-27T23:21:17.805Z,98314.84
2022-11-27T23:23:44.757Z,98314.38
2022-11-27T23:26:20.432Z,98300.06
2022-11-27T23:28:48.900Z,98302.53
2022-11-27T23:31:30.033Z,98291.16
2022-11-27T23:33:57.921Z,98297.91
2022-11-27T23:36:24.707Z,98288.03
2022-11-27T23:38:51.108Z,98298.72
2022-11-27T23:41:20.158Z,98301.81
2022-11-27T23:43:46.961Z,98281.25
2022-11-27T23:46:15.050Z,98288.69
2022-11-27T23:48:41.841Z,98290.97
2022-11-27T23:51:10.344Z,98284.53
2022-11-27T23:53:37.315Z,98292.94
2022-11-27T23:56:07.475Z,98289.97
2022-11-27T23:58:33.863Z,98300.03
